Darstellungsparameter: Aktuell verwendete Einstellungen:
Skalierung der Graphiken ... ?
xyx+y,   Skalierungsfaktor:      Skalierung: Modus: x, Faktor: 1
Darstellungszeitraum ... ?
Vom - - bis: - -   Zeitraum: 16.04.2011 - 16.04.2011
Min/Max/Avg-Anzeige ... ?
Zeige MMA aktuell
Zeige MMA Monat
Zeige MMA alles
Zeige --A aktuell
Zeige --A Monat
Zeige --A alles
Keine MMA-Anzeige
MMA:
Average (ber die Originaldaten)
MMA-Basis: 16.04.2011 - 16.04.2011
Quicknavigation für Darstellung... ?
Tage:      1T, 2T, 3T, 5T -1T -2T -3T -5T +1T +2T +3T +5T
Wochen: 1W, 2W, 3W -1W -2W -3W +1W +2W +3W
Monate: 1M, 3M, 6M -1M -3M -6M +1M +3M +6M
Jahre:    1J, 3J, 5J, 10J -1J -3J -5J -10J +1J +3J +5J +10J
Nutze für die Darstellung ... ?
Originaldaten oder Mittelwerte auf ...
Stundenbasis Tagesbasis Wochenbasis
Monatsbasis Jahresbasis      Datenbasis: Original-Daten
Darstellen als:
Statistik (Auto) Statistik J:M      Darstellung:
Zur Graphik,    zurück zur Übersicht aller Sensoren.
 
Tabellarische Datenbersicht: ?
 
Sensor: Nr:Datum:Temp:Abs-Feuchte:Windchill:Wind:
Aussen-T/F 1 16-04-2011 00:09:04 2.8 C 4.16 g/m*3 2.8 C 0 km/h
2 16-04-2011 00:21:04 2.6 C 4.22 g/m*3 2.6 C 0 km/h
3 16-04-2011 00:33:05 2.4 C 4.34 g/m*3 2.4 C 0 km/h
4 16-04-2011 00:45:05 2 C 4.22 g/m*3 2 C 0 km/h
5 16-04-2011 00:57:05 1.9 C 4.25 g/m*3 1.9 C 0 km/h
6 16-04-2011 01:09:05 1.8 C 4.28 g/m*3 1.8 C 0 km/h
7 16-04-2011 01:21:05 1.6 C 4.27 g/m*3 1.6 C 0 km/h
8 16-04-2011 01:33:05 1.4 C 4.27 g/m*3 1.4 C 0 km/h
9 16-04-2011 01:45:05 1.4 C 4.32 g/m*3 1.4 C 0 km/h
10 16-04-2011 01:57:05 1.4 C 4.37 g/m*3 1.4 C 0 km/h
11 16-04-2011 02:09:05 1.2 C 4.31 g/m*3 1.2 C 0 km/h
12 16-04-2011 02:21:05 1.3 C 4.4 g/m*3 1.3 C 0 km/h
13 16-04-2011 02:33:05 1 C 4.31 g/m*3 1 C 0 km/h
14 16-04-2011 02:45:05 0.9 C 4.33 g/m*3 0.9 C 0 km/h
15 16-04-2011 02:57:05 0.6 C 4.29 g/m*3 0.6 C 0 km/h
16 16-04-2011 03:09:05 0.5 C 4.26 g/m*3 0.5 C 0 km/h
17 16-04-2011 03:21:05 0.5 C 4.31 g/m*3 0.5 C 0 km/h
18 16-04-2011 03:33:05 0.3 C 4.25 g/m*3 0.3 C 0 km/h
19 16-04-2011 03:45:05 0.1 C 4.2 g/m*3 0.1 C 0 km/h
20 16-04-2011 03:57:05 0.1 C 4.2 g/m*3 0.1 C 0 km/h
21 16-04-2011 04:09:05 0 C 4.17 g/m*3 0 C 0 km/h
22 16-04-2011 04:21:05 0.2 C 4.27 g/m*3 0.2 C 0 km/h
23 16-04-2011 04:33:06 -0.1 C 4.19 g/m*3 -0.1 C 0 km/h
24 16-04-2011 04:45:06 -0.3 C 4.13 g/m*3 -0.3 C 0 km/h
25 16-04-2011 04:57:06 -0.4 C 4.15 g/m*3 -0.4 C 0 km/h
Sensor: Nr:Datum:Temp:Abs-Feuchte:Windchill:Wind:
Aussen-T/F 26 16-04-2011 05:09:06 -0.2 C 4.21 g/m*3 -0.2 C 0 km/h
27 16-04-2011 05:21:06 0 C 4.31 g/m*3 0 C 0 km/h
28 16-04-2011 05:33:04 0.9 C 4.64 g/m*3 0.9 C 0 km/h
29 16-04-2011 05:45:02 1.4 C 4.8 g/m*3 1.4 C 0 km/h
30 16-04-2011 05:57:02 1.5 C 4.78 g/m*3 1.5 C 0 km/h
31 16-04-2011 06:09:02 1.7 C 4.85 g/m*3 1.7 C 0 km/h
32 16-04-2011 06:21:01 1.9 C 4.91 g/m*3 1.9 C 0 km/h
33 16-04-2011 06:33:02 2 C 4.83 g/m*3 2 C 0 km/h
34 16-04-2011 06:45:02 2 C 4.78 g/m*3 2 C 0 km/h
35 16-04-2011 06:57:02 2.1 C 4.76 g/m*3 2.1 C 0 km/h
36 16-04-2011 07:09:02 2.3 C 4.76 g/m*3 2.3 C 0 km/h
37 16-04-2011 07:21:01 2.4 C 4.74 g/m*3 2.4 C 0 km/h
38 16-04-2011 07:33:02 2.6 C 4.69 g/m*3 2.6 C 0 km/h
39 16-04-2011 07:45:02 2.8 C 4.63 g/m*3 2.8 C 0 km/h
40 16-04-2011 07:57:02 3 C 4.64 g/m*3 3 C 0 km/h
41 16-04-2011 08:09:02 3.3 C 4.61 g/m*3 3.3 C 0 km/h
42 16-04-2011 08:21:01 3.5 C 4.61 g/m*3 3.5 C 0 km/h
43 16-04-2011 08:33:02 4.1 C 4.61 g/m*3 4.1 C 0 km/h
44 16-04-2011 08:45:02 4.4 C 4.64 g/m*3 4.4 C 0 km/h
45 16-04-2011 08:57:02 4.4 C 4.51 g/m*3 4.4 C 0 km/h
46 16-04-2011 09:09:02 4.7 C 4.46 g/m*3 4.7 C 0 km/h
47 16-04-2011 09:21:02 5.2 C 4.41 g/m*3 5.2 C 0 km/h
48 16-04-2011 09:33:03 5.9 C 4.47 g/m*3 5.9 C 0 km/h
49 16-04-2011 09:45:02 7 C 4.49 g/m*3 7 C 0 km/h
50 16-04-2011 09:57:03 7.3 C 4.42 g/m*3 7.3 C 0 km/h
Sensor: Nr:Datum:Temp:Abs-Feuchte:Windchill:Wind:
Aussen-T/F 51 16-04-2011 10:09:01 7.2 C 4.16 g/m*3 7.2 C 0 km/h
52 16-04-2011 10:21:02 7.2 C 4.24 g/m*3 7.2 C 0 km/h
53 16-04-2011 10:33:02 7.5 C 4.32 g/m*3 7.5 C 0 km/h
54 16-04-2011 10:45:02 8.6 C 4.47 g/m*3 8.6 C 0 km/h
55 16-04-2011 10:57:02 9.1 C 4.35 g/m*3 9.1 C 0 km/h
56 16-04-2011 11:09:02 9.2 C 4.55 g/m*3 9.2 C 0 km/h
57 16-04-2011 11:21:02 9.3 C 4.49 g/m*3 9.3 C 0 km/h
58 16-04-2011 11:33:02 9.9 C 4.76 g/m*3 9.9 C 0 km/h
59 16-04-2011 11:45:02 12.1 C 4.72 g/m*3 12.1 C 0 km/h
60 16-04-2011 11:57:03 13.5 C 4.68 g/m*3 13.5 C 0 km/h
61 16-04-2011 12:09:01 14.2 C 4.27 g/m*3 14.2 C 0 km/h
62 16-04-2011 12:21:02 15.1 C 4 g/m*3 15.1 C 0 km/h
63 16-04-2011 12:33:01 15.2 C 3.5 g/m*3 15.2 C 0 km/h
64 16-04-2011 12:45:02 15 C 3.33 g/m*3 15 C 0 km/h
65 16-04-2011 12:57:02 15.9 C 2.71 g/m*3 15.9 C 0 km/h
66 16-04-2011 13:09:01 16.2 C 2.76 g/m*3 16.2 C 0 km/h
67 16-04-2011 13:21:02 16.5 C 2.81 g/m*3 16.5 C 0 km/h
68 16-04-2011 13:33:02 15.7 C 2.68 g/m*3 15.7 C 0 km/h
69 16-04-2011 13:45:02 15.8 C 2.69 g/m*3 15.8 C 0 km/h
70 16-04-2011 13:57:02 16.4 C 2.79 g/m*3 16.4 C 0 km/h
71 16-04-2011 14:09:02 17.5 C 2.98 g/m*3 17.5 C 0 km/h
72 16-04-2011 14:21:02 17.1 C 2.91 g/m*3 17.1 C 0 km/h
73 16-04-2011 14:33:02 16.6 C 2.83 g/m*3 16.6 C 0 km/h
74 16-04-2011 14:45:01 16.7 C 2.84 g/m*3 16.7 C 0 km/h
75 16-04-2011 14:57:01 16.1 C 2.74 g/m*3 16.1 C 0 km/h
Sensor: Nr:Datum:Temp:Abs-Feuchte:Windchill:Wind:
Aussen-T/F 76 16-04-2011 15:09:02 15.4 C 2.63 g/m*3 15.4 C 0 km/h
77 16-04-2011 15:21:01 14.8 C 2.53 g/m*3 14.8 C 0 km/h
78 16-04-2011 15:33:02 15 C 2.82 g/m*3 15 C 0 km/h
79 16-04-2011 15:45:01 14.9 C 2.55 g/m*3 14.9 C 0 km/h
80 16-04-2011 15:57:01 15.4 C 2.63 g/m*3 15.4 C 0 km/h
81 16-04-2011 16:09:02 15.7 C 2.94 g/m*3 15.7 C 0 km/h
82 16-04-2011 16:21:01 16.1 C 2.88 g/m*3 16.1 C 0 km/h
83 16-04-2011 16:33:02 15.5 C 2.64 g/m*3 15.5 C 0 km/h
84 16-04-2011 16:45:01 15.8 C 2.69 g/m*3 15.8 C 0 km/h
85 16-04-2011 16:57:01 15.4 C 2.89 g/m*3 15.4 C 0 km/h
86 16-04-2011 17:09:02 15.6 C 3.06 g/m*3 15.6 C 0 km/h
87 16-04-2011 17:21:01 15.6 C 3.32 g/m*3 15.6 C 0 km/h
88 16-04-2011 17:33:02 15.2 C 3.12 g/m*3 15.2 C 0 km/h
89 16-04-2011 17:45:01 15.2 C 3.24 g/m*3 15.2 C 0 km/h
90 16-04-2011 17:57:01 14.8 C 3.29 g/m*3 14.8 C 0 km/h
91 16-04-2011 18:09:02 14.1 C 3.64 g/m*3 14.1 C 0 km/h
92 16-04-2011 18:21:02 13.3 C 4.51 g/m*3 13.3 C 0 km/h
93 16-04-2011 18:33:02 12.7 C 4.56 g/m*3 12.7 C 0 km/h
94 16-04-2011 18:45:02 12.3 C 4.45 g/m*3 12.3 C 0 km/h
95 16-04-2011 18:57:02 12.1 C 4.4 g/m*3 12.1 C 0 km/h
96 16-04-2011 19:09:02 12 C 4.48 g/m*3 12 C 0 km/h
97 16-04-2011 19:21:02 12 C 4.58 g/m*3 12 C 0 km/h
98 16-04-2011 19:33:01 11.7 C 4.6 g/m*3 11.7 C 0 km/h
99 16-04-2011 19:45:02 11.4 C 4.41 g/m*3 11.4 C 0 km/h
100 16-04-2011 19:57:02 11.2 C 4.36 g/m*3 11.2 C 0 km/h
Sensor: Nr:Datum:Temp:Abs-Feuchte:Windchill:Wind:
Aussen-T/F 101 16-04-2011 20:09:01 10.7 C 4.32 g/m*3 10.7 C 0 km/h
102 16-04-2011 20:21:02 10.4 C 4.24 g/m*3 10.4 C 0 km/h
103 16-04-2011 20:33:01 10.2 C 4.28 g/m*3 10.2 C 0 km/h
104 16-04-2011 20:45:02 10.1 C 4.26 g/m*3 10.1 C 0 km/h
105 16-04-2011 20:57:02 10 C 4.32 g/m*3 10 C 0 km/h
106 16-04-2011 21:09:02 9.9 C 4.39 g/m*3 9.9 C 0 km/h
107 16-04-2011 21:21:02 9.9 C 4.76 g/m*3 9.9 C 0 km/h
108 16-04-2011 21:33:03 9.7 C 4.61 g/m*3 9.7 C 0 km/h
109 16-04-2011 21:45:02 9.8 C 4.82 g/m*3 9.8 C 0 km/h
110 16-04-2011 21:57:02 9.5 C 4.46 g/m*3 9.5 C 0 km/h
111 16-04-2011 22:10:04 9.4 C 4.43 g/m*3 9.4 C 0 km/h
112 16-04-2011 22:22:04 9.2 C 4.38 g/m*3 9.2 C 0 km/h
113 16-04-2011 22:34:04 9.2 C 4.64 g/m*3 9.2 C 0 km/h
114 16-04-2011 22:46:04 8.9 C 4.64 g/m*3 8.9 C 0 km/h
115 16-04-2011 22:58:04 8.9 C 4.64 g/m*3 8.9 C 0 km/h
116 16-04-2011 23:10:04 8.8 C 4.7 g/m*3 8.8 C 0 km/h
117 16-04-2011 23:22:04 8.9 C 4.82 g/m*3 8.9 C 0 km/h
118 16-04-2011 23:34:04 8.9 C 4.64 g/m*3 8.9 C 0 km/h
119 16-04-2011 23:46:04 8.5 C 4.7 g/m*3 8.5 C 0 km/h
120 16-04-2011 23:58:04 8.5 C 5.04 g/m*3 8.5 C 0 km/h

Legende:
   Min
   Max


Maximal/Minimal-Werte vom 16.04.2011 - 16.04.2011

Sensor Min Max Avg
Temp
(Aussen-T/F)
-0.4 °C
16-04-2011  04:57:06
17.5 °C
16-04-2011  14:09:02
8.15 °C
Abs-Feuchte
(Aussen-T/F)
2.53 g/m*3
16-04-2011  15:21:01
5.04 g/m*3
16-04-2011  23:58:04
4.06 g/m*3
Windchill
(Aussen-T/F)
-0.4 C
16-04-2011  04:57:06
17.5 C
16-04-2011  14:09:02
8.08 C

Die Daten stammen von einer Davis Vantage Pro 2 Wetter-Station und werden unter Linux mit der Software wview2wettercgi und aufbereitet. Alle Angaben erfolgen ohne Gewähr für ihre Vollständigkeit oder Richtigkeit.
Kontakt: Rainer Krienke krienke@uni-koblenz.de . Meine Webseiten an der Uni Koblenz oder privat.
Version: $Revision: 0.78 $